sensor_id;sensor_type;location;lat;lon;timestamp;temperature;humidity
30983;DHT22;17660;52.578;13.288;2023-03-01T00:01:23;0.30;98.00
30983;DHT22;17660;52.578;13.288;2023-03-01T00:03:52;0.30;97.80
30983;DHT22;17660;52.578;13.288;2023-03-01T00:06:19;0.20;97.90
30983;DHT22;17660;52.578;13.288;2023-03-01T00:08:46;0.20;98.30
30983;DHT22;17660;52.578;13.288;2023-03-01T00:11:25;0.20;98.10
30983;DHT22;17660;52.578;13.288;2023-03-01T00:13:54;0.10;98.40
30983;DHT22;17660;52.578;13.288;2023-03-01T00:16:36;0.10;98.70
30983;DHT22;17660;52.578;13.288;2023-03-01T00:19:07;0.10;99.00
30983;DHT22;17660;52.578;13.288;2023-03-01T00:21:34;0.10;99.10
30983;DHT22;17660;52.578;13.288;2023-03-01T00:24:02;0.00;99.00
30983;DHT22;17660;52.578;13.288;2023-03-01T00:26:29;0.00;99.20
30983;DHT22;17660;52.578;13.288;2023-03-01T00:28:58;0.00;99.40
30983;DHT22;17660;52.578;13.288;2023-03-01T00:31:30;-0.10;99.40
30983;DHT22;17660;52.578;13.288;2023-03-01T00:33:59;-0.10;99.50
30983;DHT22;17660;52.578;13.288;2023-03-01T00:36:29;-0.10;99.60
30983;DHT22;17660;52.578;13.288;2023-03-01T00:38:56;-0.10;99.80
30983;DHT22;17660;52.578;13.288;2023-03-01T00:41:23;-0.10;99.90
30983;DHT22;17660;52.578;13.288;2023-03-01T00:43:53;-0.10;99.90
30983;DHT22;17660;52.578;13.288;2023-03-01T00:46:22;-0.10;99.90
30983;DHT22;17660;52.578;13.288;2023-03-01T00:48:49;-0.10;99.90
30983;DHT22;17660;52.578;13.288;2023-03-01T00:51:22;-0.10;99.90
30983;DHT22;17660;52.578;13.288;2023-03-01T00:53:54;-0.10;99.90
30983;DHT22;17660;52.578;13.288;2023-03-01T00:56:21;-0.10;99.90
30983;DHT22;17660;52.578;13.288;2023-03-01T00:58:48;-0.10;99.90
30983;DHT22;17660;52.578;13.288;2023-03-01T01:01:21;-0.10;99.90
30983;DHT22;17660;52.578;13.288;2023-03-01T01:04:12;-0.10;99.90
30983;DHT22;17660;52.578;13.288;2023-03-01T01:06:46;-0.10;99.90
30983;DHT22;17660;52.578;13.288;2023-03-01T01:09:15;-0.10;99.90
30983;DHT22;17660;52.578;13.288;2023-03-01T01:11:48;-0.10;99.90
30983;DHT22;17660;52.578;13.288;2023-03-01T01:14:16;-0.10;99.90
30983;DHT22;17660;52.578;13.288;2023-03-01T01:16:43;-0.10;99.90
30983;DHT22;17660;52.578;13.288;2023-03-01T01:19:11;0.00;99.90
30983;DHT22;17660;52.578;13.288;2023-03-01T01:21:38;-0.20;99.90
30983;DHT22;17660;52.578;13.288;2023-03-01T01:24:05;-0.20;99.90
30983;DHT22;17660;52.578;13.288;2023-03-01T01:26:34;-0.20;99.90
30983;DHT22;17660;52.578;13.288;2023-03-01T01:29:02;-0.20;99.90
30983;DHT22;17660;52.578;13.288;2023-03-01T01:31:29;-0.30;99.90
30983;DHT22;17660;52.578;13.288;2023-03-01T01:33:58;-0.30;99.90
30983;DHT22;17660;52.578;13.288;2023-03-01T01:36:25;-0.30;99.90
30983;DHT22;17660;52.578;13.288;2023-03-01T01:38:52;-0.40;99.90
30983;DHT22;17660;52.578;13.288;2023-03-01T01:41:20;-0.40;99.90
30983;DHT22;17660;52.578;13.288;2023-03-01T01:44:08;-0.40;99.90
30983;DHT22;17660;52.578;13.288;2023-03-01T01:46:38;-0.30;99.90
30983;DHT22;17660;52.578;13.288;2023-03-01T01:49:11;-0.40;99.90
30983;DHT22;17660;52.578;13.288;2023-03-01T01:51:42;-0.40;99.90
30983;DHT22;17660;52.578;13.288;2023-03-01T01:54:14;-0.40;99.90
30983;DHT22;17660;52.578;13.288;2023-03-01T01:56:56;-0.40;99.90
30983;DHT22;17660;52.578;13.288;2023-03-01T01:59:24;-0.40;99.90
30983;DHT22;17660;52.578;13.288;2023-03-01T02:01:52;-0.40;99.90
30983;DHT22;17660;52.578;13.288;2023-03-01T02:04:20;-0.40;99.90
30983;DHT22;17660;52.578;13.288;2023-03-01T02:07:11;-0.40;99.90
30983;DHT22;17660;52.578;13.288;2023-03-01T02:09:40;-0.40;99.90
30983;DHT22;17660;52.578;13.288;2023-03-01T02:12:07;-0.50;99.90
30983;DHT22;17660;52.578;13.288;2023-03-01T02:14:34;-0.50;99.90
30983;DHT22;17660;52.578;13.288;2023-03-01T02:17:01;-0.50;99.90
30983;DHT22;17660;52.578;13.288;2023-03-01T02:22:32;-0.50;99.90
30983;DHT22;17660;52.578;13.288;2023-03-01T02:30:34;-0.70;99.90
30983;DHT22;17660;52.578;13.288;2023-03-01T02:33:03;-0.80;99.90
30983;DHT22;17660;52.578;13.288;2023-03-01T02:35:33;-0.90;99.90
30983;DHT22;17660;52.578;13.288;2023-03-01T02:38:01;-0.90;99.90
30983;DHT22;17660;52.578;13.288;2023-03-01T02:40:29;-0.90;99.90
30983;DHT22;17660;52.578;13.288;2023-03-01T02:42:58;-0.90;99.90
30983;DHT22;17660;52.578;13.288;2023-03-01T02:45:26;-0.80;99.90
30983;DHT22;17660;52.578;13.288;2023-03-01T02:47:54;-0.80;99.90
30983;DHT22;17660;52.578;13.288;2023-03-01T02:55:45;-0.90;99.90
30983;DHT22;17660;52.578;13.288;2023-03-01T02:58:11;-1.00;99.90
30983;DHT22;17660;52.578;13.288;2023-03-01T03:00:41;-1.00;99.90
30983;DHT22;17660;52.578;13.288;2023-03-01T03:03:16;-1.10;99.90
30983;DHT22;17660;52.578;13.288;2023-03-01T03:05:43;-1.10;99.90
30983;DHT22;17660;52.578;13.288;2023-03-01T03:08:10;-1.00;99.90
30983;DHT22;17660;52.578;13.288;2023-03-01T03:10:40;-1.10;99.90
30983;DHT22;17660;52.578;13.288;2023-03-01T03:13:10;-1.10;99.90
30983;DHT22;17660;52.578;13.288;2023-03-01T03:15:37;-1.00;99.90
30983;DHT22;17660;52.578;13.288;2023-03-01T03:18:10;-1.00;99.90
30983;DHT22;17660;52.578;13.288;2023-03-01T03:20:40;-1.10;99.90
30983;DHT22;17660;52.578;13.288;2023-03-01T03:23:07;-1.10;99.90
30983;DHT22;17660;52.578;13.288;2023-03-01T03:25:34;-1.10;99.90
30983;DHT22;17660;52.578;13.288;2023-03-01T03:28:05;-1.10;99.90
30983;DHT22;17660;52.578;13.288;2023-03-01T03:30:39;-1.10;99.90
30983;DHT22;17660;52.578;13.288;2023-03-01T03:33:06;-1.10;99.90
30983;DHT22;17660;52.578;13.288;2023-03-01T03:35:45;-1.10;99.90
30983;DHT22;17660;52.578;13.288;2023-03-01T03:38:13;-1.10;99.90
30983;DHT22;17660;52.578;13.288;2023-03-01T03:40:49;-1.20;99.90
30983;DHT22;17660;52.578;13.288;2023-03-01T03:43:18;-1.20;99.90
30983;DHT22;17660;52.578;13.288;2023-03-01T03:45:46;-1.20;99.90
30983;DHT22;17660;52.578;13.288;2023-03-01T03:48:14;-1.20;99.90
30983;DHT22;17660;52.578;13.288;2023-03-01T03:50:46;-1.20;99.90
30983;DHT22;17660;52.578;13.288;2023-03-01T03:53:13;-1.30;99.90
30983;DHT22;17660;52.578;13.288;2023-03-01T03:55:40;-1.20;99.90
30983;DHT22;17660;52.578;13.288;2023-03-01T03:58:09;-1.20;99.90
30983;DHT22;17660;52.578;13.288;2023-03-01T04:00:41;-1.30;99.90
30983;DHT22;17660;52.578;13.288;2023-03-01T04:03:09;-1.20;99.90
30983;DHT22;17660;52.578;13.288;2023-03-01T04:05:37;-1.30;99.90
30983;DHT22;17660;52.578;13.288;2023-03-01T04:08:04;-1.30;99.90
30983;DHT22;17660;52.578;13.288;2023-03-01T04:10:37;-1.30;99.90
30983;DHT22;17660;52.578;13.288;2023-03-01T04:13:07;-1.30;99.90
30983;DHT22;17660;52.578;13.288;2023-03-01T04:15:35;-1.30;99.90
30983;DHT22;17660;52.578;13.288;2023-03-01T04:18:02;-1.30;99.90
30983;DHT22;17660;52.578;13.288;2023-03-01T04:20:32;-1.40;99.90
30983;DHT22;17660;52.578;13.288;2023-03-01T04:23:07;-1.40;99.90
30983;DHT22;17660;52.578;13.288;2023-03-01T04:25:39;-1.40;99.90
30983;DHT22;17660;52.578;13.288;2023-03-01T04:28:07;-1.40;99.90
30983;DHT22;17660;52.578;13.288;2023-03-01T04:30:35;-1.50;99.90
30983;DHT22;17660;52.578;13.288;2023-03-01T04:33:07;-1.40;99.90
30983;DHT22;17660;52.578;13.288;2023-03-01T04:35:36;-1.40;99.90
30983;DHT22;17660;52.578;13.288;2023-03-01T04:38:04;-1.40;99.90
30983;DHT22;17660;52.578;13.288;2023-03-01T04:40:32;-1.40;99.90
30983;DHT22;17660;52.578;13.288;2023-03-01T04:42:59;-1.50;99.90
30983;DHT22;17660;52.578;13.288;2023-03-01T04:45:26;-1.50;99.90
30983;DHT22;17660;52.578;13.288;2023-03-01T04:47:53;-1.50;99.90
30983;DHT22;17660;52.578;13.288;2023-03-01T04:50:20;-1.50;99.90
30983;DHT22;17660;52.578;13.288;2023-03-01T04:52:48;-1.60;99.90
30983;DHT22;17660;52.578;13.288;2023-03-01T04:55:15;-1.60;99.90
30983;DHT22;17660;52.578;13.288;2023-03-01T04:57:42;-1.60;99.90
30983;DHT22;17660;52.578;13.288;2023-03-01T05:00:11;-1.50;99.90
30983;DHT22;17660;52.578;13.288;2023-03-01T05:02:48;-1.50;99.90
30983;DHT22;17660;52.578;13.288;2023-03-01T05:05:16;-1.50;99.90
30983;DHT22;17660;52.578;13.288;2023-03-01T05:07:42;-1.50;99.90
30983;DHT22;17660;52.578;13.288;2023-03-01T05:10:09;-1.50;99.90
30983;DHT22;17660;52.578;13.288;2023-03-01T05:12:36;-1.50;99.90
30983;DHT22;17660;52.578;13.288;2023-03-01T05:15:04;-1.50;99.90
30983;DHT22;17660;52.578;13.288;2023-03-01T05:17:34;-1.50;99.90
30983;DHT22;17660;52.578;13.288;2023-03-01T05:20:01;-1.50;99.90
30983;DHT22;17660;52.578;13.288;2023-03-01T05:22:28;-1.50;99.90
30983;DHT22;17660;52.578;13.288;2023-03-01T05:24:55;-1.60;99.90
30983;DHT22;17660;52.578;13.288;2023-03-01T05:27:22;-1.60;99.90
30983;DHT22;17660;52.578;13.288;2023-03-01T05:29:49;-1.60;99.90
30983;DHT22;17660;52.578;13.288;2023-03-01T05:32:15;-1.60;99.90
30983;DHT22;17660;52.578;13.288;2023-03-01T05:34:42;-1.70;99.90
30983;DHT22;17660;52.578;13.288;2023-03-01T05:37:10;-1.70;99.90
30983;DHT22;17660;52.578;13.288;2023-03-01T05:39:37;-1.70;99.90
30983;DHT22;17660;52.578;13.288;2023-03-01T05:42:04;-1.70;99.90
30983;DHT22;17660;52.578;13.288;2023-03-01T05:44:30;-1.70;99.90
30983;DHT22;17660;52.578;13.288;2023-03-01T05:46:57;-1.70;99.90
30983;DHT22;17660;52.578;13.288;2023-03-01T05:49:24;-1.70;99.90
30983;DHT22;17660;52.578;13.288;2023-03-01T05:51:52;-1.80;99.90
30983;DHT22;17660;52.578;13.288;2023-03-01T05:54:20;-1.80;99.90
30983;DHT22;17660;52.578;13.288;2023-03-01T05:56:48;-1.80;99.90
30983;DHT22;17660;52.578;13.288;2023-03-01T05:59:14;-1.70;99.90
30983;DHT22;17660;52.578;13.288;2023-03-01T06:01:43;-1.80;99.90
30983;DHT22;17660;52.578;13.288;2023-03-01T06:04:10;-1.80;99.90
30983;DHT22;17660;52.578;13.288;2023-03-01T06:06:37;-1.80;99.90
30983;DHT22;17660;52.578;13.288;2023-03-01T06:09:07;-1.80;99.90
30983;DHT22;17660;52.578;13.288;2023-03-01T06:11:36;-1.80;99.90
30983;DHT22;17660;52.578;13.288;2023-03-01T06:14:04;-1.70;99.90
30983;DHT22;17660;52.578;13.288;2023-03-01T06:16:33;-1.70;99.90
30983;DHT22;17660;52.578;13.288;2023-03-01T06:18:59;-1.60;99.90
30983;DHT22;17660;52.578;13.288;2023-03-01T06:21:26;-1.70;99.90
30983;DHT22;17660;52.578;13.288;2023-03-01T06:23:53;-1.70;99.90
30983;DHT22;17660;52.578;13.288;2023-03-01T06:26:20;-1.70;99.90
30983;DHT22;17660;52.578;13.288;2023-03-01T06:28:46;-1.60;99.90
30983;DHT22;17660;52.578;13.288;2023-03-01T06:31:13;-1.60;99.90
30983;DHT22;17660;52.578;13.288;2023-03-01T06:33:40;-1.60;99.90
30983;DHT22;17660;52.578;13.288;2023-03-01T06:36:07;-1.60;99.90
30983;DHT22;17660;52.578;13.288;2023-03-01T06:38:34;-1.50;99.90
30983;DHT22;17660;52.578;13.288;2023-03-01T06:41:01;-1.50;99.90
30983;DHT22;17660;52.578;13.288;2023-03-01T06:43:28;-1.40;99.90
30983;DHT22;17660;52.578;13.288;2023-03-01T06:45:55;-1.30;99.90
30983;DHT22;17660;52.578;13.288;2023-03-01T06:48:22;-1.30;99.90
30983;DHT22;17660;52.578;13.288;2023-03-01T06:50:48;-1.30;99.90
30983;DHT22;17660;52.578;13.288;2023-03-01T06:53:15;-1.30;99.90
30983;DHT22;17660;52.578;13.288;2023-03-01T06:55:42;-1.20;99.90
30983;DHT22;17660;52.578;13.288;2023-03-01T06:58:09;-1.10;99.90
30983;DHT22;17660;52.578;13.288;2023-03-01T07:00:36;-1.00;99.90
30983;DHT22;17660;52.578;13.288;2023-03-01T07:03:03;-0.90;99.90
30983;DHT22;17660;52.578;13.288;2023-03-01T07:05:30;-0.70;99.90
30983;DHT22;17660;52.578;13.288;2023-03-01T07:07:57;-0.60;99.90
30983;DHT22;17660;52.578;13.288;2023-03-01T07:10:24;-0.40;99.90
30983;DHT22;17660;52.578;13.288;2023-03-01T07:13:01;-0.30;99.90
30983;DHT22;17660;52.578;13.288;2023-03-01T07:15:28;-0.10;99.90
30983;DHT22;17660;52.578;13.288;2023-03-01T07:17:56;0.00;99.90
30983;DHT22;17660;52.578;13.288;2023-03-01T07:20:22;0.10;99.90
30983;DHT22;17660;52.578;13.288;2023-03-01T07:22:52;0.30;99.90
30983;DHT22;17660;52.578;13.288;2023-03-01T07:25:19;0.40;99.90
30983;DHT22;17660;52.578;13.288;2023-03-01T07:27:53;0.60;99.90
30983;DHT22;17660;52.578;13.288;2023-03-01T07:30:21;0.80;99.90
30983;DHT22;17660;52.578;13.288;2023-03-01T07:32:48;0.90;99.90
30983;DHT22;17660;52.578;13.288;2023-03-01T07:35:15;1.10;99.90
30983;DHT22;17660;52.578;13.288;2023-03-01T07:37:42;1.10;99.90
30983;DHT22;17660;52.578;13.288;2023-03-01T07:40:09;1.20;99.90
30983;DHT22;17660;52.578;13.288;2023-03-01T07:42:37;1.20;99.90
30983;DHT22;17660;52.578;13.288;2023-03-01T07:45:05;1.30;99.90
30983;DHT22;17660;52.578;13.288;2023-03-01T07:47:32;1.40;99.90
30983;DHT22;17660;52.578;13.288;2023-03-01T07:49:59;1.40;99.90
30983;DHT22;17660;52.578;13.288;2023-03-01T07:52:28;1.60;99.90
30983;DHT22;17660;52.578;13.288;2023-03-01T07:54:55;1.80;99.90
30983;DHT22;17660;52.578;13.288;2023-03-01T07:57:22;1.80;99.90
30983;DHT22;17660;52.578;13.288;2023-03-01T07:59:49;1.80;99.90
30983;DHT22;17660;52.578;13.288;2023-03-01T08:02:16;1.90;99.90
30983;DHT22;17660;52.578;13.288;2023-03-01T08:04:42;2.00;99.90
30983;DHT22;17660;52.578;13.288;2023-03-01T08:07:09;2.10;99.90
30983;DHT22;17660;52.578;13.288;2023-03-01T08:09:36;2.20;99.90
30983;DHT22;17660;52.578;13.288;2023-03-01T08:12:04;2.30;99.90
30983;DHT22;17660;52.578;13.288;2023-03-01T08:14:32;2.40;99.90
30983;DHT22;17660;52.578;13.288;2023-03-01T08:16:59;2.60;99.90
30983;DHT22;17660;52.578;13.288;2023-03-01T08:19:26;2.80;99.50
30983;DHT22;17660;52.578;13.288;2023-03-01T08:21:54;3.00;99.10
30983;DHT22;17660;52.578;13.288;2023-03-01T08:24:21;3.10;98.80
30983;DHT22;17660;52.578;13.288;2023-03-01T08:26:49;3.30;98.40
30983;DHT22;17660;52.578;13.288;2023-03-01T08:29:16;3.50;98.10
30983;DHT22;17660;52.578;13.288;2023-03-01T08:31:42;3.70;98.20
30983;DHT22;17660;52.578;13.288;2023-03-01T08:34:12;3.80;98.10
30983;DHT22;17660;52.578;13.288;2023-03-01T08:36:41;3.90;97.70
30983;DHT22;17660;52.578;13.288;2023-03-01T08:39:11;4.10;97.50
30983;DHT22;17660;52.578;13.288;2023-03-01T08:41:39;4.20;96.70
30983;DHT22;17660;52.578;13.288;2023-03-01T08:44:07;4.30;96.70
30983;DHT22;17660;52.578;13.288;2023-03-01T08:46:37;4.40;96.40
30983;DHT22;17660;52.578;13.288;2023-03-01T08:49:05;4.30;95.50
30983;DHT22;17660;52.578;13.288;2023-03-01T08:51:33;4.30;95.00
30983;DHT22;17660;52.578;13.288;2023-03-01T08:54:09;4.20;95.50
30983;DHT22;17660;52.578;13.288;2023-03-01T08:56:37;4.30;95.10
30983;DHT22;17660;52.578;13.288;2023-03-01T08:59:07;4.40;94.90
30983;DHT22;17660;52.578;13.288;2023-03-01T09:01:34;4.30;94.50
30983;DHT22;17660;52.578;13.288;2023-03-01T09:04:03;4.30;94.30
30983;DHT22;17660;52.578;13.288;2023-03-01T09:06:32;4.20;94.70
30983;DHT22;17660;52.578;13.288;2023-03-01T09:09:00;4.20;94.20
30983;DHT22;17660;52.578;13.288;2023-03-01T09:11:28;4.30;94.20
30983;DHT22;17660;52.578;13.288;2023-03-01T09:13:58;4.20;94.20
30983;DHT22;17660;52.578;13.288;2023-03-01T09:16:25;4.30;94.30
30983;DHT22;17660;52.578;13.288;2023-03-01T09:18:53;4.60;94.10
30983;DHT22;17660;52.578;13.288;2023-03-01T09:21:22;4.80;93.50
30983;DHT22;17660;52.578;13.288;2023-03-01T09:24:05;4.80;93.60
30983;DHT22;17660;52.578;13.288;2023-03-01T09:26:32;4.90;93.80
30983;DHT22;17660;52.578;13.288;2023-03-01T09:28:59;5.00;93.60
30983;DHT22;17660;52.578;13.288;2023-03-01T09:31:26;5.20;92.90
30983;DHT22;17660;52.578;13.288;2023-03-01T09:33:53;5.20;92.60
30983;DHT22;17660;52.578;13.288;2023-03-01T09:36:23;5.20;92.80
30983;DHT22;17660;52.578;13.288;2023-03-01T09:38:51;5.20;92.30
30983;DHT22;17660;52.578;13.288;2023-03-01T09:41:33;5.20;93.00
30983;DHT22;17660;52.578;13.288;2023-03-01T09:44:13;5.30;92.90
30983;DHT22;17660;52.578;13.288;2023-03-01T09:46:43;5.40;93.00
30983;DHT22;17660;52.578;13.288;2023-03-01T09:49:35;5.40;93.10
30983;DHT22;17660;52.578;13.288;2023-03-01T09:52:50;5.50;92.50
30983;DHT22;17660;52.578;13.288;2023-03-01T09:55:12;5.50;92.70
30983;DHT22;17660;52.578;13.288;2023-03-01T09:58:00;5.60;92.10
30983;DHT22;17660;52.578;13.288;2023-03-01T10:00:39;5.80;91.50
30983;DHT22;17660;52.578;13.288;2023-03-01T10:03:22;5.90;91.80
30983;DHT22;17660;52.578;13.288;2023-03-01T10:06:19;6.00;91.40
30983;DHT22;17660;52.578;13.288;2023-03-01T10:09:16;6.30;91.00
30983;DHT22;17660;52.578;13.288;2023-03-01T10:11:46;6.70;90.90
30983;DHT22;17660;52.578;13.288;2023-03-01T10:14:48;7.00;88.90
30983;DHT22;17660;52.578;13.288;2023-03-01T10:17:42;7.40;89.90
30983;DHT22;17660;52.578;13.288;2023-03-01T10:22:45;8.60;85.40
30983;DHT22;17660;52.578;13.288;2023-03-01T10:28:54;10.50;77.80
30983;DHT22;17660;52.578;13.288;2023-03-01T10:31:30;11.40;70.40
30983;DHT22;17660;52.578;13.288;2023-03-01T10:34:12;12.00;67.50
30983;DHT22;17660;52.578;13.288;2023-03-01T10:36:40;12.60;66.30
30983;DHT22;17660;52.578;13.288;2023-03-01T10:39:17;13.30;64.60
30983;DHT22;17660;52.578;13.288;2023-03-01T10:47:02;15.00;57.50
30983;DHT22;17660;52.578;13.288;2023-03-01T10:49:28;15.60;56.40
30983;DHT22;17660;52.578;13.288;2023-03-01T10:51:55;16.40;55.30
30983;DHT22;17660;52.578;13.288;2023-03-01T10:54:29;17.20;51.90
30983;DHT22;17660;52.578;13.288;2023-03-01T10:57:01;17.80;50.10
30983;DHT22;17660;52.578;13.288;2023-03-01T10:59:37;18.80;48.50
30983;DHT22;17660;52.578;13.288;2023-03-01T11:02:28;19.20;45.90
30983;DHT22;17660;52.578;13.288;2023-03-01T11:05:21;19.80;44.10
30983;DHT22;17660;52.578;13.288;2023-03-01T11:07:57;20.60;44.10
30983;DHT22;17660;52.578;13.288;2023-03-01T11:10:28;20.40;43.80
30983;DHT22;17660;52.578;13.288;2023-03-01T11:13:07;20.90;44.30
30983;DHT22;17660;52.578;13.288;2023-03-01T11:15:35;21.90;42.10
30983;DHT22;17660;52.578;13.288;2023-03-01T11:18:02;22.50;41.60
30983;DHT22;17660;52.578;13.288;2023-03-01T11:20:40;22.70;40.70
30983;DHT22;17660;52.578;13.288;2023-03-01T11:23:13;23.10;38.80
30983;DHT22;17660;52.578;13.288;2023-03-01T11:25:49;22.40;41.60
30983;DHT22;17660;52.578;13.288;2023-03-01T11:28:19;21.70;44.10
30983;DHT22;17660;52.578;13.288;2023-03-01T11:33:49;20.50;45.30
30983;DHT22;17660;52.578;13.288;2023-03-01T11:36:56;20.20;45.60
30983;DHT22;17660;52.578;13.288;2023-03-01T11:39:31;19.90;44.10
30983;DHT22;17660;52.578;13.288;2023-03-01T11:44:58;19.60;44.30
30983;DHT22;17660;52.578;13.288;2023-03-01T11:47:51;19.80;45.70
30983;DHT22;17660;52.578;13.288;2023-03-01T11:50:47;19.80;42.70
30983;DHT22;17660;52.578;13.288;2023-03-01T12:12:51;19.50;41.00
30983;DHT22;17660;52.578;13.288;2023-03-01T12:20:54;19.70;41.20
30983;DHT22;17660;52.578;13.288;2023-03-01T12:37:39;19.70;40.90
30983;DHT22;17660;52.578;13.288;2023-03-01T12:43:19;20.60;42.80
30983;DHT22;17660;52.578;13.288;2023-03-01T12:49:18;20.70;39.40
30983;DHT22;17660;52.578;13.288;2023-03-01T12:51:59;20.70;39.40
30983;DHT22;17660;52.578;13.288;2023-03-01T12:54:30;20.60;39.70
30983;DHT22;17660;52.578;13.288;2023-03-01T12:57:02;20.70;40.30
30983;DHT22;17660;52.578;13.288;2023-03-01T12:59:42;21.10;38.70
30983;DHT22;17660;52.578;13.288;2023-03-01T13:02:37;21.10;39.60
30983;DHT22;17660;52.578;13.288;2023-03-01T13:13:21;21.60;38.20
30983;DHT22;17660;52.578;13.288;2023-03-01T13:15:49;21.70;36.90
30983;DHT22;17660;52.578;13.288;2023-03-01T13:20:56;21.50;38.10
30983;DHT22;17660;52.578;13.288;2023-03-01T13:23:47;21.70;36.70
30983;DHT22;17660;52.578;13.288;2023-03-01T13:26:17;21.30;37.60
30983;DHT22;17660;52.578;13.288;2023-03-01T13:34:01;18.70;39.90
30983;DHT22;17660;52.578;13.288;2023-03-01T13:42:02;17.90;39.40
30983;DHT22;17660;52.578;13.288;2023-03-01T13:44:36;17.80;40.60
30983;DHT22;17660;52.578;13.288;2023-03-01T13:49:59;17.90;40.60
30983;DHT22;17660;52.578;13.288;2023-03-01T13:52:56;17.90;40.20
30983;DHT22;17660;52.578;13.288;2023-03-01T13:55:42;17.50;40.60
30983;DHT22;17660;52.578;13.288;2023-03-01T14:00:45;16.80;41.40
30983;DHT22;17660;52.578;13.288;2023-03-01T14:03:16;16.40;42.00
30983;DHT22;17660;52.578;13.288;2023-03-01T14:06:04;16.10;42.30
30983;DHT22;17660;52.578;13.288;2023-03-01T14:08:44;15.70;43.20
30983;DHT22;17660;52.578;13.288;2023-03-01T14:11:27;15.30;43.50
30983;DHT22;17660;52.578;13.288;2023-03-01T14:16:36;14.80;44.60
30983;DHT22;17660;52.578;13.288;2023-03-01T14:19:24;14.70;45.60
30983;DHT22;17660;52.578;13.288;2023-03-01T14:22:15;14.30;45.00
30983;DHT22;17660;52.578;13.288;2023-03-01T14:27:41;13.80;45.60
30983;DHT22;17660;52.578;13.288;2023-03-01T14:30:19;13.50;46.90
30983;DHT22;17660;52.578;13.288;2023-03-01T14:32:59;13.30;47.70
30983;DHT22;17660;52.578;13.288;2023-03-01T14:35:32;13.30;47.60
30983;DHT22;17660;52.578;13.288;2023-03-01T14:38:00;13.30;46.90
30983;DHT22;17660;52.578;13.288;2023-03-01T14:40:33;13.10;47.30
30983;DHT22;17660;52.578;13.288;2023-03-01T14:43:08;13.20;47.40
30983;DHT22;17660;52.578;13.288;2023-03-01T14:45:36;13.30;47.70
30983;DHT22;17660;52.578;13.288;2023-03-01T14:48:04;13.20;46.70
30983;DHT22;17660;52.578;13.288;2023-03-01T14:50:34;13.10;48.30
30983;DHT22;17660;52.578;13.288;2023-03-01T14:53:04;12.90;47.70
30983;DHT22;17660;52.578;13.288;2023-03-01T14:55:37;12.70;47.50
30983;DHT22;17660;52.578;13.288;2023-03-01T14:58:10;12.70;48.50
30983;DHT22;17660;52.578;13.288;2023-03-01T15:00:39;12.60;48.30
30983;DHT22;17660;52.578;13.288;2023-03-01T15:03:17;12.50;48.70
30983;DHT22;17660;52.578;13.288;2023-03-01T15:05:46;12.30;48.20
30983;DHT22;17660;52.578;13.288;2023-03-01T15:08:23;12.20;49.00
30983;DHT22;17660;52.578;13.288;2023-03-01T15:13:29;12.50;49.50
30983;DHT22;17660;52.578;13.288;2023-03-01T15:16:17;12.70;49.40
30983;DHT22;17660;52.578;13.288;2023-03-01T15:18:50;12.80;49.50
30983;DHT22;17660;52.578;13.288;2023-03-01T15:21:21;13.00;49.70
30983;DHT22;17660;52.578;13.288;2023-03-01T15:23:54;13.00;49.30
30983;DHT22;17660;52.578;13.288;2023-03-01T15:26:30;13.10;49.60
30983;DHT22;17660;52.578;13.288;2023-03-01T15:28:59;13.10;50.20
30983;DHT22;17660;52.578;13.288;2023-03-01T15:31:33;13.00;50.30
30983;DHT22;17660;52.578;13.288;2023-03-01T15:34:32;12.90;51.90
30983;DHT22;17660;52.578;13.288;2023-03-01T15:37:01;12.50;51.20
30983;DHT22;17660;52.578;13.288;2023-03-01T15:39:41;12.40;52.00
30983;DHT22;17660;52.578;13.288;2023-03-01T15:42:12;12.10;53.20
30983;DHT22;17660;52.578;13.288;2023-03-01T15:44:41;11.70;54.20
30983;DHT22;17660;52.578;13.288;2023-03-01T15:47:28;11.50;54.40
30983;DHT22;17660;52.578;13.288;2023-03-01T15:49:56;11.30;55.00
30983;DHT22;17660;52.578;13.288;2023-03-01T15:52:32;11.10;55.20
30983;DHT22;17660;52.578;13.288;2023-03-01T15:58:00;10.70;56.00
30983;DHT22;17660;52.578;13.288;2023-03-01T16:00:29;10.50;56.10
30983;DHT22;17660;52.578;13.288;2023-03-01T16:02:56;10.30;56.50
30983;DHT22;17660;52.578;13.288;2023-03-01T16:05:32;10.20;56.60
30983;DHT22;17660;52.578;13.288;2023-03-01T16:07:58;10.10;57.00
30983;DHT22;17660;52.578;13.288;2023-03-01T16:10:52;10.00;57.40
30983;DHT22;17660;52.578;13.288;2023-03-01T16:13:21;9.90;58.10
30983;DHT22;17660;52.578;13.288;2023-03-01T16:15:48;9.80;58.10
30983;DHT22;17660;52.578;13.288;2023-03-01T16:18:14;9.80;58.20
30983;DHT22;17660;52.578;13.288;2023-03-01T16:20:41;9.70;58.70
30983;DHT22;17660;52.578;13.288;2023-03-01T16:23:10;9.70;59.20
30983;DHT22;17660;52.578;13.288;2023-03-01T16:25:37;9.60;59.20
30983;DHT22;17660;52.578;13.288;2023-03-01T16:28:04;9.50;59.40
30983;DHT22;17660;52.578;13.288;2023-03-01T16:30:36;9.40;59.50
30983;DHT22;17660;52.578;13.288;2023-03-01T16:33:04;9.30;59.90
30983;DHT22;17660;52.578;13.288;2023-03-01T16:35:51;9.30;59.90
30983;DHT22;17660;52.578;13.288;2023-03-01T16:38:18;9.20;60.00
30983;DHT22;17660;52.578;13.288;2023-03-01T16:40:50;9.20;60.40
30983;DHT22;17660;52.578;13.288;2023-03-01T16:43:17;9.20;60.70
30983;DHT22;17660;52.578;13.288;2023-03-01T16:45:44;9.10;61.00
30983;DHT22;17660;52.578;13.288;2023-03-01T16:48:12;9.00;61.40
30983;DHT22;17660;52.578;13.288;2023-03-01T16:50:39;8.90;61.60
30983;DHT22;17660;52.578;13.288;2023-03-01T16:53:06;8.80;62.20
30983;DHT22;17660;52.578;13.288;2023-03-01T16:55:33;8.70;62.40
30983;DHT22;17660;52.578;13.288;2023-03-01T16:58:00;8.70;62.60
30983;DHT22;17660;52.578;13.288;2023-03-01T17:00:27;8.60;62.60
30983;DHT22;17660;52.578;13.288;2023-03-01T17:02:54;8.50;63.00
30983;DHT22;17660;52.578;13.288;2023-03-01T17:05:21;8.40;63.30
30983;DHT22;17660;52.578;13.288;2023-03-01T17:07:50;8.30;63.70
30983;DHT22;17660;52.578;13.288;2023-03-01T17:10:17;8.20;64.20
30983;DHT22;17660;52.578;13.288;2023-03-01T17:12:44;8.20;63.90
30983;DHT22;17660;52.578;13.288;2023-03-01T17:15:11;8.10;64.20
30983;DHT22;17660;52.578;13.288;2023-03-01T17:17:38;8.00;64.50
30983;DHT22;17660;52.578;13.288;2023-03-01T17:20:05;7.90;64.80
30983;DHT22;17660;52.578;13.288;2023-03-01T17:22:32;7.80;65.30
30983;DHT22;17660;52.578;13.288;2023-03-01T17:24:59;7.80;65.90
30983;DHT22;17660;52.578;13.288;2023-03-01T17:27:26;7.70;66.20
30983;DHT22;17660;52.578;13.288;2023-03-01T17:29:53;7.70;66.40
30983;DHT22;17660;52.578;13.288;2023-03-01T17:32:20;7.60;66.40
30983;DHT22;17660;52.578;13.288;2023-03-01T17:34:47;7.50;66.70
30983;DHT22;17660;52.578;13.288;2023-03-01T17:37:14;7.50;67.10
30983;DHT22;17660;52.578;13.288;2023-03-01T17:39:40;7.40;67.70